sensor_id;sensor_type;location;lat;lon;timestamp;pressure;altitude;pressure_sealevel;temperature;humidity
34374;BME280;20637;55.770;37.592;2022-12-20T00:00:14;100836.28;;;-2.06;78.70
34374;BME280;20637;55.770;37.592;2022-12-20T00:02:39;100834.41;;;-2.04;78.80
34374;BME280;20637;55.770;37.592;2022-12-20T00:05:05;100821.31;;;-2.07;78.71
34374;BME280;20637;55.770;37.592;2022-12-20T00:07:31;100827.44;;;-2.05;78.54
34374;BME280;20637;55.770;37.592;2022-12-20T00:09:56;100813.22;;;-2.03;78.56
34374;BME280;20637;55.770;37.592;2022-12-20T00:12:22;100816.59;;;-1.99;78.44
34374;BME280;20637;55.770;37.592;2022-12-20T00:14:47;100828.78;;;-1.95;78.64
34374;BME280;20637;55.770;37.592;2022-12-20T00:17:13;100811.16;;;-1.96;78.54
34374;BME280;20637;55.770;37.592;2022-12-20T00:19:38;100817.59;;;-2.02;78.39
34374;BME280;20637;55.770;37.592;2022-12-20T00:22:04;100821.19;;;-2.04;78.06
34374;BME280;20637;55.770;37.592;2022-12-20T00:24:29;100830.97;;;-2.06;78.43
34374;BME280;20637;55.770;37.592;2022-12-20T00:26:55;100832.72;;;-2.05;78.49
34374;BME280;20637;55.770;37.592;2022-12-20T00:29:20;100836.09;;;-2.02;78.47
34374;BME280;20637;55.770;37.592;2022-12-20T00:31:45;100833.28;;;-1.97;77.93
34374;BME280;20637;55.770;37.592;2022-12-20T00:34:11;100818.94;;;-1.92;78.11
34374;BME280;20637;55.770;37.592;2022-12-20T00:36:38;100809.94;;;-1.87;78.36
34374;BME280;20637;55.770;37.592;2022-12-20T00:39:06;100803.97;;;-1.93;77.83
34374;BME280;20637;55.770;37.592;2022-12-20T00:41:32;100798.13;;;-2.01;77.98
34374;BME280;20637;55.770;37.592;2022-12-20T00:43:58;100813.06;;;-2.00;77.86
34374;BME280;20637;55.770;37.592;2022-12-20T00:46:24;100799.94;;;-2.01;77.82
34374;BME280;20637;55.770;37.592;2022-12-20T00:48:51;100792.59;;;-1.95;78.00
34374;BME280;20637;55.770;37.592;2022-12-20T00:51:17;100781.16;;;-1.95;77.84
34374;BME280;20637;55.770;37.592;2022-12-20T00:53:43;100771.34;;;-1.93;77.56
34374;BME280;20637;55.770;37.592;2022-12-20T00:56:09;100759.25;;;-1.99;77.28
34374;BME280;20637;55.770;37.592;2022-12-20T00:58:36;100764.72;;;-2.03;77.51
34374;BME280;20637;55.770;37.592;2022-12-20T01:01:02;100765.94;;;-2.12;77.49
34374;BME280;20637;55.770;37.592;2022-12-20T01:03:28;100762.56;;;-2.15;77.14
34374;BME280;20637;55.770;37.592;2022-12-20T01:06:00;100755.84;;;-2.24;77.61
34374;BME280;20637;55.770;37.592;2022-12-20T01:08:28;100749.91;;;-2.29;77.26
34374;BME280;20637;55.770;37.592;2022-12-20T01:11:02;100766.53;;;-2.27;77.13
34374;BME280;20637;55.770;37.592;2022-12-20T01:13:28;100773.63;;;-2.27;77.05
34374;BME280;20637;55.770;37.592;2022-12-20T01:15:53;100762.19;;;-2.28;77.47
34374;BME280;20637;55.770;37.592;2022-12-20T01:18:19;100766.63;;;-2.28;77.72
34374;BME280;20637;55.770;37.592;2022-12-20T01:20:44;100762.84;;;-2.23;77.71
34374;BME280;20637;55.770;37.592;2022-12-20T01:23:10;100766.53;;;-2.27;77.86
34374;BME280;20637;55.770;37.592;2022-12-20T01:25:35;100743.47;;;-2.23;77.49
34374;BME280;20637;55.770;37.592;2022-12-20T01:28:01;100751.38;;;-2.22;77.76
34374;BME280;20637;55.770;37.592;2022-12-20T01:30:26;100757.38;;;-2.18;77.81
34374;BME280;20637;55.770;37.592;2022-12-20T01:32:51;100759.03;;;-2.16;77.48
34374;BME280;20637;55.770;37.592;2022-12-20T01:35:17;100748.66;;;-2.20;77.68
34374;BME280;20637;55.770;37.592;2022-12-20T01:37:42;100748.66;;;-2.20;77.55
34374;BME280;20637;55.770;37.592;2022-12-20T01:40:08;100743.31;;;-2.19;77.62
34374;BME280;20637;55.770;37.592;2022-12-20T01:42:35;100751.09;;;-2.16;77.73
34374;BME280;20637;55.770;37.592;2022-12-20T01:45:00;100741.03;;;-2.28;77.60
34374;BME280;20637;55.770;37.592;2022-12-20T01:47:25;100743.03;;;-2.34;77.87
34374;BME280;20637;55.770;37.592;2022-12-20T01:49:54;100741.31;;;-2.35;77.47
34374;BME280;20637;55.770;37.592;2022-12-20T01:52:27;100737.72;;;-2.33;77.55
34374;BME280;20637;55.770;37.592;2022-12-20T01:55:08;100745.56;;;-2.31;77.81
34374;BME280;20637;55.770;37.592;2022-12-20T01:57:46;100741.84;;;-2.26;77.64
34374;BME280;20637;55.770;37.592;2022-12-20T02:00:13;100743.47;;;-2.23;77.91
34374;BME280;20637;55.770;37.592;2022-12-20T02:02:39;100736.50;;;-2.24;77.43
34374;BME280;20637;55.770;37.592;2022-12-20T02:05:05;100730.47;;;-2.28;77.37
34374;BME280;20637;55.770;37.592;2022-12-20T02:07:31;100729.69;;;-2.31;77.33
34374;BME280;20637;55.770;37.592;2022-12-20T02:09:58;100729.78;;;-2.33;77.44
34374;BME280;20637;55.770;37.592;2022-12-20T02:12:25;100727.31;;;-2.37;76.61
34374;BME280;20637;55.770;37.592;2022-12-20T02:14:58;100731.72;;;-2.38;76.53
34374;BME280;20637;55.770;37.592;2022-12-20T02:17:46;100723.97;;;-2.43;76.57
34374;BME280;20637;55.770;37.592;2022-12-20T02:27:45;100701.91;;;-2.63;76.48
34374;BME280;20637;55.770;37.592;2022-12-20T02:30:17;100706.03;;;-2.56;76.37
34374;BME280;20637;55.770;37.592;2022-12-20T02:32:45;100706.19;;;-2.61;76.33
34374;BME280;20637;55.770;37.592;2022-12-20T02:35:13;100702.00;;;-2.66;76.13
34374;BME280;20637;55.770;37.592;2022-12-20T02:37:50;100703.09;;;-2.72;75.77
34374;BME280;20637;55.770;37.592;2022-12-20T02:40:17;100696.09;;;-2.73;75.99
34374;BME280;20637;55.770;37.592;2022-12-20T02:42:44;100687.38;;;-2.75;75.86
34374;BME280;20637;55.770;37.592;2022-12-20T02:45:10;100690.97;;;-2.77;75.46
34374;BME280;20637;55.770;37.592;2022-12-20T02:47:49;100682.75;;;-2.70;75.29
34374;BME280;20637;55.770;37.592;2022-12-20T02:50:17;100679.88;;;-2.64;75.09
34374;BME280;20637;55.770;37.592;2022-12-20T02:52:45;100682.41;;;-2.61;75.38
34374;BME280;20637;55.770;37.592;2022-12-20T02:55:11;100685.03;;;-2.61;75.22
34374;BME280;20637;55.770;37.592;2022-12-20T03:00:07;100669.94;;;-2.57;75.36
34374;BME280;20637;55.770;37.592;2022-12-20T03:02:35;100656.66;;;-2.56;74.96
34374;BME280;20637;55.770;37.592;2022-12-20T03:05:22;100664.81;;;-2.62;74.63
34374;BME280;20637;55.770;37.592;2022-12-20T03:07:49;100663.28;;;-2.67;74.49
34374;BME280;20637;55.770;37.592;2022-12-20T03:10:17;100653.97;;;-2.77;74.65
34374;BME280;20637;55.770;37.592;2022-12-20T03:12:42;100653.38;;;-2.84;74.82
34374;BME280;20637;55.770;37.592;2022-12-20T03:15:08;100646.25;;;-2.82;74.56
34374;BME280;20637;55.770;37.592;2022-12-20T03:17:34;100641.94;;;-2.84;74.83
34374;BME280;20637;55.770;37.592;2022-12-20T03:19:59;100625.28;;;-2.86;74.38
34374;BME280;20637;55.770;37.592;2022-12-20T03:22:25;100620.06;;;-2.88;74.42
34374;BME280;20637;55.770;37.592;2022-12-20T03:24:51;100618.34;;;-2.89;74.38
34374;BME280;20637;55.770;37.592;2022-12-20T03:27:17;100619.16;;;-2.87;74.37
34374;BME280;20637;55.770;37.592;2022-12-20T03:29:42;100628.81;;;-2.86;74.12
34374;BME280;20637;55.770;37.592;2022-12-20T03:32:10;100626.25;;;-2.89;74.05
34374;BME280;20637;55.770;37.592;2022-12-20T03:34:40;100612.31;;;-2.93;73.33
34374;BME280;20637;55.770;37.592;2022-12-20T03:37:05;100621.41;;;-3.00;73.54
34374;BME280;20637;55.770;37.592;2022-12-20T03:39:31;100612.03;;;-3.08;73.28
34374;BME280;20637;55.770;37.592;2022-12-20T03:41:57;100606.25;;;-3.18;73.04
34374;BME280;20637;55.770;37.592;2022-12-20T03:44:22;100608.38;;;-3.27;72.63
34374;BME280;20637;55.770;37.592;2022-12-20T03:46:50;100596.28;;;-3.33;72.65
34374;BME280;20637;55.770;37.592;2022-12-20T03:49:15;100591.28;;;-3.41;72.40
34374;BME280;20637;55.770;37.592;2022-12-20T03:51:45;100590.75;;;-3.50;72.32
34374;BME280;20637;55.770;37.592;2022-12-20T03:54:11;100584.69;;;-3.52;72.99
34374;BME280;20637;55.770;37.592;2022-12-20T03:57:00;100577.72;;;-3.55;72.76
34374;BME280;20637;55.770;37.592;2022-12-20T03:59:26;100575.16;;;-3.56;72.38
34374;BME280;20637;55.770;37.592;2022-12-20T04:01:52;100576.69;;;-3.51;72.47
34374;BME280;20637;55.770;37.592;2022-12-20T04:04:18;100569.72;;;-3.52;71.75
34374;BME280;20637;55.770;37.592;2022-12-20T04:06:43;100569.94;;;-3.58;72.02
34374;BME280;20637;55.770;37.592;2022-12-20T04:09:08;100562.13;;;-3.61;70.86
34374;BME280;20637;55.770;37.592;2022-12-20T04:11:40;100564.91;;;-3.64;71.22
34374;BME280;20637;55.770;37.592;2022-12-20T04:14:10;100564.94;;;-3.65;71.27
34374;BME280;20637;55.770;37.592;2022-12-20T04:16:37;100558.88;;;-3.67;69.76
34374;BME280;20637;55.770;37.592;2022-12-20T04:19:04;100553.66;;;-3.69;69.61
34374;BME280;20637;55.770;37.592;2022-12-20T04:21:35;100551.06;;;-3.70;69.85
34374;BME280;20637;55.770;37.592;2022-12-20T04:24:03;100547.78;;;-3.77;68.62
34374;BME280;20637;55.770;37.592;2022-12-20T04:26:38;100552.38;;;-3.82;69.46
34374;BME280;20637;55.770;37.592;2022-12-20T04:29:03;100550.88;;;-3.89;69.27
34374;BME280;20637;55.770;37.592;2022-12-20T04:31:29;100547.38;;;-3.90;68.46
34374;BME280;20637;55.770;37.592;2022-12-20T04:33:55;100545.59;;;-3.89;68.15
34374;BME280;20637;55.770;37.592;2022-12-20T04:36:22;100535.03;;;-3.89;68.10
34374;BME280;20637;55.770;37.592;2022-12-20T04:38:50;100543.06;;;-3.92;67.62
34374;BME280;20637;55.770;37.592;2022-12-20T04:41:16;100544.84;;;-3.93;67.09
34374;BME280;20637;55.770;37.592;2022-12-20T04:43:51;100543.03;;;-3.91;67.56
34374;BME280;20637;55.770;37.592;2022-12-20T04:46:18;100547.31;;;-3.88;67.40
34374;BME280;20637;55.770;37.592;2022-12-20T04:48:44;100551.63;;;-3.86;66.11
34374;BME280;20637;55.770;37.592;2022-12-20T04:51:09;100549.84;;;-3.85;66.53
34374;BME280;20637;55.770;37.592;2022-12-20T04:53:35;100540.84;;;-3.79;66.70
34374;BME280;20637;55.770;37.592;2022-12-20T04:56:22;100540.69;;;-3.75;67.51
34374;BME280;20637;55.770;37.592;2022-12-20T04:58:49;100542.47;;;-3.75;66.89
34374;BME280;20637;55.770;37.592;2022-12-20T05:01:15;100538.09;;;-3.76;65.88
34374;BME280;20637;55.770;37.592;2022-12-20T05:03:46;100536.50;;;-3.80;65.84
34374;BME280;20637;55.770;37.592;2022-12-20T05:06:12;100532.13;;;-3.81;66.54
34374;BME280;20637;55.770;37.592;2022-12-20T05:08:38;100534.88;;;-3.85;65.33
34374;BME280;20637;55.770;37.592;2022-12-20T05:11:04;100527.84;;;-3.84;65.94
34374;BME280;20637;55.770;37.592;2022-12-20T05:13:31;100523.41;;;-3.83;65.56
34374;BME280;20637;55.770;37.592;2022-12-20T05:15:57;100527.78;;;-3.82;65.57
34374;BME280;20637;55.770;37.592;2022-12-20T05:18:26;100512.25;;;-3.90;64.86
34374;BME280;20637;55.770;37.592;2022-12-20T05:20:59;100509.53;;;-3.89;64.57
34374;BME280;20637;55.770;37.592;2022-12-20T05:23:46;100510.41;;;-3.88;65.31
34374;BME280;20637;55.770;37.592;2022-12-20T05:26:36;100511.38;;;-3.91;64.64
34374;BME280;20637;55.770;37.592;2022-12-20T05:29:03;100511.53;;;-3.95;64.97
34374;BME280;20637;55.770;37.592;2022-12-20T05:31:29;100508.91;;;-3.95;64.94
34374;BME280;20637;55.770;37.592;2022-12-20T05:33:55;100499.31;;;-3.98;64.14
34374;BME280;20637;55.770;37.592;2022-12-20T05:36:24;100494.16;;;-4.01;64.82
34374;BME280;20637;55.770;37.592;2022-12-20T05:38:49;100490.88;;;-4.07;64.40
34374;BME280;20637;55.770;37.592;2022-12-20T05:41:17;100483.97;;;-4.10;63.69
34374;BME280;20637;55.770;37.592;2022-12-20T05:43:47;100475.97;;;-4.08;64.74
34374;BME280;20637;55.770;37.592;2022-12-20T05:46:12;100474.16;;;-4.06;64.84
34374;BME280;20637;55.770;37.592;2022-12-20T05:48:50;100480.97;;;-4.01;63.73
34374;BME280;20637;55.770;37.592;2022-12-20T05:51:15;100469.56;;;-4.01;64.62
34374;BME280;20637;55.770;37.592;2022-12-20T05:53:54;100475.66;;;-3.99;63.95
34374;BME280;20637;55.770;37.592;2022-12-20T05:56:31;100471.97;;;-3.95;65.12
34374;BME280;20637;55.770;37.592;2022-12-20T05:58:57;100470.09;;;-3.92;64.01
34374;BME280;20637;55.770;37.592;2022-12-20T06:01:24;100462.91;;;-3.88;64.64
34374;BME280;20637;55.770;37.592;2022-12-20T06:03:56;100473.47;;;-3.88;63.95
34374;BME280;20637;55.770;37.592;2022-12-20T06:06:21;100464.66;;;-3.87;64.92
34374;BME280;20637;55.770;37.592;2022-12-20T06:08:47;100462.78;;;-3.85;64.39
34374;BME280;20637;55.770;37.592;2022-12-20T06:11:22;100460.97;;;-3.83;63.51
34374;BME280;20637;55.770;37.592;2022-12-20T06:13:54;100450.41;;;-3.83;64.04
34374;BME280;20637;55.770;37.592;2022-12-20T06:16:19;100459.13;;;-3.81;64.05
34374;BME280;20637;55.770;37.592;2022-12-20T06:18:47;100453.69;;;-3.76;63.71
34374;BME280;20637;55.770;37.592;2022-12-20T06:21:14;100457.00;;;-3.71;63.59
34374;BME280;20637;55.770;37.592;2022-12-20T06:23:40;100458.69;;;-3.70;63.62
34374;BME280;20637;55.770;37.592;2022-12-20T06:26:09;100459.81;;;-3.76;63.47
34374;BME280;20637;55.770;37.592;2022-12-20T06:28:39;100457.22;;;-3.77;64.12
34374;BME280;20637;55.770;37.592;2022-12-20T06:31:07;100454.59;;;-3.77;63.18
34374;BME280;20637;55.770;37.592;2022-12-20T06:33:48;100452.94;;;-3.80;62.61
34374;BME280;20637;55.770;37.592;2022-12-20T06:36:15;100448.56;;;-3.81;62.63
34374;BME280;20637;55.770;37.592;2022-12-20T06:38:41;100442.38;;;-3.80;63.83
34374;BME280;20637;55.770;37.592;2022-12-20T06:41:07;100428.22;;;-3.77;63.60
34374;BME280;20637;55.770;37.592;2022-12-20T06:43:32;100428.38;;;-3.82;63.24
34374;BME280;20637;55.770;37.592;2022-12-20T06:45:58;100427.53;;;-3.82;62.83
34374;BME280;20637;55.770;37.592;2022-12-20T06:48:23;100430.09;;;-3.81;63.05
34374;BME280;20637;55.770;37.592;2022-12-20T06:50:50;100415.00;;;-3.77;63.46
34374;BME280;20637;55.770;37.592;2022-12-20T06:53:17;100413.03;;;-3.71;62.47
34374;BME280;20637;55.770;37.592;2022-12-20T06:55:42;100400.88;;;-3.75;61.86
34374;BME280;20637;55.770;37.592;2022-12-20T06:58:08;100404.47;;;-3.77;62.07
34374;BME280;20637;55.770;37.592;2022-12-20T07:00:36;100397.41;;;-3.77;62.41
34374;BME280;20637;55.770;37.592;2022-12-20T07:03:01;100394.94;;;-3.81;62.09
34374;BME280;20637;55.770;37.592;2022-12-20T07:05:26;100385.44;;;-3.86;62.71
34374;BME280;20637;55.770;37.592;2022-12-20T07:07:52;100387.34;;;-3.89;62.83
34374;BME280;20637;55.770;37.592;2022-12-20T07:10:17;100382.22;;;-3.94;61.68
34374;BME280;20637;55.770;37.592;2022-12-20T07:12:43;100370.78;;;-3.93;61.84
34374;BME280;20637;55.770;37.592;2022-12-20T07:15:08;100371.63;;;-3.92;62.37
34374;BME280;20637;55.770;37.592;2022-12-20T07:17:34;100351.56;;;-3.96;62.94
34374;BME280;20637;55.770;37.592;2022-12-20T07:19:59;100365.66;;;-3.97;62.23
34374;BME280;20637;55.770;37.592;2022-12-20T07:22:25;100351.53;;;-3.95;63.14
34374;BME280;20637;55.770;37.592;2022-12-20T07:24:50;100344.47;;;-3.94;62.89
34374;BME280;20637;55.770;37.592;2022-12-20T07:27:16;100341.72;;;-3.91;62.04
34374;BME280;20637;55.770;37.592;2022-12-20T07:29:42;100331.91;;;-3.88;62.05
34374;BME280;20637;55.770;37.592;2022-12-20T07:32:08;100332.69;;;-3.86;62.91
34374;BME280;20637;55.770;37.592;2022-12-20T07:34:35;100330.00;;;-3.84;62.08
34374;BME280;20637;55.770;37.592;2022-12-20T07:37:00;100309.63;;;-3.80;61.80
34374;BME280;20637;55.770;37.592;2022-12-20T07:39:26;100300.13;;;-3.85;62.48
34374;BME280;20637;55.770;37.592;2022-12-20T07:41:54;100301.16;;;-3.89;61.31
34374;BME280;20637;55.770;37.592;2022-12-20T07:44:21;100294.38;;;-3.94;61.60
34374;BME280;20637;55.770;37.592;2022-12-20T07:46:47;100282.81;;;-3.92;61.34
34374;BME280;20637;55.770;37.592;2022-12-20T07:49:12;100290.13;;;-3.98;61.30
34374;BME280;20637;55.770;37.592;2022-12-20T07:51:42;100274.53;;;-4.04;61.91
34374;BME280;20637;55.770;37.592;2022-12-20T07:54:10;100275.34;;;-4.02;62.17
34374;BME280;20637;55.770;37.592;2022-12-20T07:56:39;100265.59;;;-4.00;60.87
34374;BME280;20637;55.770;37.592;2022-12-20T07:59:05;100260.19;;;-3.97;61.77
34374;BME280;20637;55.770;37.592;2022-12-20T08:01:30;100255.66;;;-3.94;61.07
34374;BME280;20637;55.770;37.592;2022-12-20T08:04:01;100251.31;;;-3.95;61.66
34374;BME280;20637;55.770;37.592;2022-12-20T08:06:28;100240.88;;;-3.98;60.49
34374;BME280;20637;55.770;37.592;2022-12-20T08:08:54;100242.59;;;-3.97;61.50
34374;BME280;20637;55.770;37.592;2022-12-20T08:11:22;100229.34;;;-3.95;61.55
34374;BME280;20637;55.770;37.592;2022-12-20T08:13:49;100240.03;;;-3.98;61.20
34374;BME280;20637;55.770;37.592;2022-12-20T08:16:14;100230.22;;;-3.95;60.62
34374;BME280;20637;55.770;37.592;2022-12-20T08:18:40;100232.66;;;-3.90;60.50
34374;BME280;20637;55.770;37.592;2022-12-20T08:21:05;100234.50;;;-3.92;61.00
34374;BME280;20637;55.770;37.592;2022-12-20T08:23:31;100233.59;;;-3.91;60.82
34374;BME280;20637;55.770;37.592;2022-12-20T08:25:59;100225.59;;;-3.90;60.30
34374;BME280;20637;55.770;37.592;2022-12-20T08:28:24;100224.75;;;-3.90;61.03
34374;BME280;20637;55.770;37.592;2022-12-20T08:30:50;100225.03;;;-3.98;60.43
34374;BME280;20637;55.770;37.592;2022-12-20T08:33:15;100219.91;;;-4.01;59.78
34374;BME280;20637;55.770;37.592;2022-12-20T08:35:40;100222.63;;;-4.02;60.31
34374;BME280;20637;55.770;37.592;2022-12-20T08:38:06;100222.63;;;-4.02;60.08
34374;BME280;20637;55.770;37.592;2022-12-20T08:40:31;100208.31;;;-3.97;60.73
34374;BME280;20637;55.770;37.592;2022-12-20T08:42:57;100210.16;;;-3.99;60.72
34374;BME280;20637;55.770;37.592;2022-12-20T08:45:22;100208.16;;;-4.14;60.46
34374;BME280;20637;55.770;37.592;2022-12-20T08:47:48;100199.63;;;-4.20;60.00
34374;BME280;20637;55.770;37.592;2022-12-20T08:50:14;100208.34;;;-4.18;60.16
34374;BME280;20637;55.770;37.592;2022-12-20T08:52:40;100197.66;;;-4.15;60.93
34374;BME280;20637;55.770;37.592;2022-12-20T08:55:05;100191.53;;;-4.16;61.04
34374;BME280;20637;55.770;37.592;2022-12-20T08:57:31;100197.13;;;-4.23;60.67
34374;BME280;20637;55.770;37.592;2022-12-20T08:59:56;100184.84;;;-4.24;60.26
34374;BME280;20637;55.770;37.592;2022-12-20T09:02:22;100197.94;;;-4.21;60.88
34374;BME280;20637;55.770;37.592;2022-12-20T09:04:47;100176.84;;;-4.21;61.10
34374;BME280;20637;55.770;37.592;2022-12-20T09:07:13;100169.47;;;-4.13;61.28
34374;BME280;20637;55.770;37.592;2022-12-20T09:09:38;100167.56;;;-4.10;60.90
34374;BME280;20637;55.770;37.592;2022-12-20T09:12:04;100152.34;;;-4.03;60.17
34374;BME280;20637;55.770;37.592;2022-12-20T09:14:29;100142.50;;;-4.00;60.26
34374;BME280;20637;55.770;37.592;2022-12-20T09:16:54;100149.38;;;-3.96;60.71
34374;BME280;20637;55.770;37.592;2022-12-20T09:19:20;100147.75;;;-3.98;60.80
34374;BME280;20637;55.770;37.592;2022-12-20T09:21:45;100138.25;;;-4.02;60.16
34374;BME280;20637;55.770;37.592;2022-12-20T09:24:11;100134.03;;;-4.06;61.03
34374;BME280;20637;55.770;37.592;2022-12-20T09:26:36;100124.72;;;-4.15;61.30
34374;BME280;20637;55.770;37.592;2022-12-20T09:29:02;100115.94;;;-4.15;60.53
34374;BME280;20637;55.770;37.592;2022-12-20T09:31:28;100113.16;;;-4.12;60.85
34374;BME280;20637;55.770;37.592;2022-12-20T09:33:54;100111.19;;;-4.07;61.60
34374;BME280;20637;55.770;37.592;2022-12-20T09:36:20;100110.09;;;-4.02;60.41
34374;BME280;20637;55.770;37.592;2022-12-20T09:38:46;100107.19;;;-3.96;61.02
34374;BME280;20637;55.770;37.592;2022-12-20T09:46:46;100077.50;;;-3.80;60.03
34374;BME280;20637;55.770;37.592;2022-12-20T09:49:16;100081.16;;;-3.83;60.92
34374;BME280;20637;55.770;37.592;2022-12-20T09:51:58;100074.19;;;-3.86;60.85
34374;BME280;20637;55.770;37.592;2022-12-20T09:59:41;100061.72;;;-3.82;60.25
34374;BME280;20637;55.770;37.592;2022-12-20T10:02:08;100059.91;;;-3.80;60.87
34374;BME280;20637;55.770;37.592;2022-12-20T10:04:35;100043.78;;;-3.74;60.88
34374;BME280;20637;55.770;37.592;2022-12-20T10:17:13;100025.38;;;-3.94;61.04
34374;BME280;20637;55.770;37.592;2022-12-20T10:19:53;100013.69;;;-3.89;61.13
34374;BME280;20637;55.770;37.592;2022-12-20T10:22:24;100013.44;;;-3.82;60.64
34374;BME280;20637;55.770;37.592;2022-12-20T10:24:52;100010.84;;;-3.84;61.05
34374;BME280;20637;55.770;37.592;2022-12-20T10:27:19;100004.19;;;-3.93;60.81
34374;BME280;20637;55.770;37.592;2022-12-20T10:29:45;100003.34;;;-3.93;60.63
34374;BME280;20637;55.770;37.592;2022-12-20T10:32:18;99998.91;;;-3.93;61.41
34374;BME280;20637;55.770;37.592;2022-12-20T10:34:51;99996.84;;;-3.86;60.55
34374;BME280;20637;55.770;37.592;2022-12-20T10:37:19;99989.75;;;-3.84;60.47
34374;BME280;20637;55.770;37.592;2022-12-20T10:39:46;99986.31;;;-3.86;60.59
34374;BME280;20637;55.770;37.592;2022-12-20T10:44:56;99969.50;;;-3.83;61.67
34374;BME280;20637;55.770;37.592;2022-12-20T10:47:37;99964.28;;;-3.85;60.92
34374;BME280;20637;55.770;37.592;2022-12-20T10:50:22;99961.81;;;-3.88;60.61
34374;BME280;20637;55.770;37.592;2022-12-20T10:55:40;99961.50;;;-3.82;60.53
34374;BME280;20637;55.770;37.592;2022-12-20T11:00:37;99946.53;;;-3.81;60.83
34374;BME280;20637;55.770;37.592;2022-12-20T11:05:38;99945.13;;;-3.70;62.20
34374;BME280;20637;55.770;37.592;2022-12-20T11:08:11;99954.59;;;-3.66;61.89
34374;BME280;20637;55.770;37.592;2022-12-20T11:10:37;99943.91;;;-3.63;62.06
34374;BME280;20637;55.770;37.592;2022-12-20T11:13:03;99948.41;;;-3.65;61.67
34374;BME280;20637;55.770;37.592;2022-12-20T11:15:30;99953.19;;;-3.73;60.69
34374;BME280;20637;55.770;37.592;2022-12-20T11:18:07;99946.41;;;-3.78;61.21
34374;BME280;20637;55.770;37.592;2022-12-20T11:23:05;99943.53;;;-3.74;61.08
34374;BME280;20637;55.770;37.592;2022-12-20T11:31:07;99934.78;;;-3.56;62.12
34374;BME280;20637;55.770;37.592;2022-12-20T11:36:20;99932.16;;;-3.56;61.53
34374;BME280;20637;55.770;37.592;2022-12-20T11:44:14;99925.66;;;-3.67;60.75
34374;BME280;20637;55.770;37.592;2022-12-20T11:46:48;99918.13;;;-3.75;60.79
34374;BME280;20637;55.770;37.592;2022-12-20T11:49:37;99916.56;;;-3.79;61.65
34374;BME280;20637;55.770;37.592;2022-12-20T11:54:52;99929.28;;;-3.70;62.37
34374;BME280;20637;55.770;37.592;2022-12-20T11:57:28;99935.50;;;-3.71;61.51
34374;BME280;20637;55.770;37.592;2022-12-20T11:59:57;99934.31;;;-3.82;61.19
34374;BME280;20637;55.770;37.592;2022-12-20T12:04:51;99920.31;;;-3.85;62.32
34374;BME280;20637;55.770;37.592;2022-12-20T12:07:20;99923.88;;;-3.86;61.79
34374;BME280;20637;55.770;37.592;2022-12-20T12:14:49;99916.41;;;-3.95;61.30
34374;BME280;20637;55.770;37.592;2022-12-20T12:17:51;99914.88;;;-4.00;62.24
34374;BME280;20637;55.770;37.592;2022-12-20T12:22:44;99910.69;;;-4.04;61.59
34374;BME280;20637;55.770;37.592;2022-12-20T12:25:12;99911.47;;;-4.02;62.74
34374;BME280;20637;55.770;37.592;2022-12-20T12:27:39;99910.19;;;-3.94;62.29
34374;BME280;20637;55.770;37.592;2022-12-20T12:30:05;99908.34;;;-3.92;62.63
34374;BME280;20637;55.770;37.592;2022-12-20T12:32:41;99917.31;;;-3.96;61.87
34374;BME280;20637;55.770;37.592;2022-12-20T12:50:41;99916.53;;;-3.98;63.32
34374;BME280;20637;55.770;37.592;2022-12-20T12:58:40;99905.63;;;-4.09;63.18
34374;BME280;20637;55.770;37.592;2022-12-20T13:01:02;99908.13;;;-4.06;63.62
34374;BME280;20637;55.770;37.592;2022-12-20T13:11:14;99916.13;;;-4.27;62.58
34374;BME280;20637;55.770;37.592;2022-12-20T13:14:09;99912.25;;;-4.19;63.66
34374;BME280;20637;55.770;37.592;2022-12-20T13:16:37;99915.94;;;-4.23;63.67
34374;BME280;20637;55.770;37.592;2022-12-20T13:19:10;99909.03;;;-4.25;62.91
34374;BME280;20637;55.770;37.592;2022-12-20T13:21:37;99891.22;;;-4.20;63.77
34374;BME280;20637;55.770;37.592;2022-12-20T13:27:01;99902.88;;;-4.06;62.86
34374;BME280;20637;55.770;37.592;2022-12-20T13:29:31;99900.50;;;-4.12;62.78
34374;BME280;20637;55.770;37.592;2022-12-20T13:31:57;99895.38;;;-4.15;63.63
34374;BME280;20637;55.770;37.592;2022-12-20T13:37:00;99895.34;;;-4.34;63.40
34374;BME280;20637;55.770;37.592;2022-12-20T13:44:40;99900.34;;;-4.48;63.81
34374;BME280;20637;55.770;37.592;2022-12-20T13:49:36;99895.88;;;-4.46;64.44
34374;BME280;20637;55.770;37.592;2022-12-20T13:54:48;99893.78;;;-4.38;63.78
34374;BME280;20637;55.770;37.592;2022-12-20T13:57:15;99900.75;;;-4.37;64.55
34374;BME280;20637;55.770;37.592;2022-12-20T13:59:44;99904.75;;;-4.28;64.29
34374;BME280;20637;55.770;37.592;2022-12-20T14:02:15;99899.13;;;-4.20;63.55
34374;BME280;20637;55.770;37.592;2022-12-20T14:04:44;99904.28;;;-4.17;64.45
34374;BME280;20637;55.770;37.592;2022-12-20T14:07:15;99905.19;;;-4.18;63.97
34374;BME280;20637;55.770;37.592;2022-12-20T14:09:43;99907.03;;;-4.20;64.34
34374;BME280;20637;55.770;37.592;2022-12-20T14:14:37;99883.41;;;-4.22;63.40
34374;BME280;20637;55.770;37.592;2022-12-20T14:20:00;99882.22;;;-4.35;64.30
34374;BME280;20637;55.770;37.592;2022-12-20T14:22:26;99887.50;;;-4.35;63.61
34374;BME280;20637;55.770;37.592;2022-12-20T14:24:51;99873.59;;;-4.39;63.77
34374;BME280;20637;55.770;37.592;2022-12-20T14:27:17;99874.66;;;-4.43;64.96
34374;BME280;20637;55.770;37.592;2022-12-20T14:29:43;99874.63;;;-4.41;64.90
34374;BME280;20637;55.770;37.592;2022-12-20T14:32:16;99875.47;;;-4.41;64.94
34374;BME280;20637;55.770;37.592;2022-12-20T14:34:42;99878.88;;;-4.39;65.35
34374;BME280;20637;55.770;37.592;2022-12-20T14:42:34;99887.59;;;-4.37;64.17
34374;BME280;20637;55.770;37.592;2022-12-20T14:45:03;99889.28;;;-4.36;65.28
34374;BME280;20637;55.770;37.592;2022-12-20T14:47:29;99886.53;;;-4.32;65.58
34374;BME280;20637;55.770;37.592;2022-12-20T14:49:58;99885.91;;;-4.39;65.52
34374;BME280;20637;55.770;37.592;2022-12-20T14:57:22;99886.94;;;-4.62;65.73